sensor_id;sensor_type;location;lat;lon;timestamp;P1;durP1;ratioP1;P2;durP2;ratioP2
466;SDS011;72290;48.808;9.222;2024-02-14T06:01:41;13.80;;;8.07;;
466;SDS011;72290;48.808;9.222;2024-02-14T06:04:07;17.53;;;8.00;;
466;SDS011;72290;48.808;9.222;2024-02-14T06:06:33;17.20;;;8.03;;
466;SDS011;72290;48.808;9.222;2024-02-14T06:08:59;15.80;;;8.10;;
466;SDS011;72290;48.808;9.222;2024-02-14T06:11:25;21.10;;;9.10;;
466;SDS011;72290;48.808;9.222;2024-02-14T06:13:51;26.67;;;8.90;;
466;SDS011;72290;48.808;9.222;2024-02-14T06:16:18;15.77;;;8.07;;
466;SDS011;72290;48.808;9.222;2024-02-14T06:18:44;17.90;;;8.27;;
466;SDS011;72290;48.808;9.222;2024-02-14T06:21:10;16.43;;;8.43;;
466;SDS011;72290;48.808;9.222;2024-02-14T06:23:36;16.57;;;8.40;;
466;SDS011;72290;48.808;9.222;2024-02-14T06:26:03;16.63;;;8.20;;
466;SDS011;72290;48.808;9.222;2024-02-14T06:28:29;16.27;;;8.20;;
466;SDS011;72290;48.808;9.222;2024-02-14T06:30:55;16.33;;;6.63;;
466;SDS011;72290;48.808;9.222;2024-02-14T06:33:21;25.27;;;8.73;;
466;SDS011;72290;48.808;9.222;2024-02-14T06:35:47;16.53;;;7.10;;
466;SDS011;72290;48.808;9.222;2024-02-14T06:38:13;19.80;;;8.50;;
466;SDS011;72290;48.808;9.222;2024-02-14T06:40:39;12.63;;;7.63;;
466;SDS011;72290;48.808;9.222;2024-02-14T06:43:05;16.93;;;8.10;;
466;SDS011;72290;48.808;9.222;2024-02-14T06:45:32;18.57;;;9.70;;
466;SDS011;72290;48.808;9.222;2024-02-14T06:47:58;22.60;;;8.07;;
466;SDS011;72290;48.808;9.222;2024-02-14T06:50:24;14.00;;;7.13;;
466;SDS011;72290;48.808;9.222;2024-02-14T06:52:54;21.60;;;8.97;;
466;SDS011;72290;48.808;9.222;2024-02-14T06:55:24;18.13;;;8.47;;
466;SDS011;72290;48.808;9.222;2024-02-14T06:57:50;23.77;;;9.40;;
466;SDS011;72290;48.808;9.222;2024-02-14T07:00:16;19.43;;;7.90;;
466;SDS011;72290;48.808;9.222;2024-02-14T07:02:42;18.80;;;7.23;;
466;SDS011;72290;48.808;9.222;2024-02-14T07:05:08;16.13;;;8.20;;
466;SDS011;72290;48.808;9.222;2024-02-14T07:07:37;14.77;;;6.90;;
466;SDS011;72290;48.808;9.222;2024-02-14T07:10:04;19.73;;;6.90;;
466;SDS011;72290;48.808;9.222;2024-02-14T07:12:31;21.73;;;6.63;;
466;SDS011;72290;48.808;9.222;2024-02-14T07:14:57;12.70;;;5.63;;
466;SDS011;72290;48.808;9.222;2024-02-14T07:17:23;13.73;;;6.50;;
466;SDS011;72290;48.808;9.222;2024-02-14T07:19:49;13.77;;;7.07;;
466;SDS011;72290;48.808;9.222;2024-02-14T07:22:15;12.90;;;5.70;;
466;SDS011;72290;48.808;9.222;2024-02-14T07:24:44;15.73;;;7.23;;
466;SDS011;72290;48.808;9.222;2024-02-14T07:27:11;17.43;;;6.50;;
466;SDS011;72290;48.808;9.222;2024-02-14T07:29:37;16.87;;;6.53;;
466;SDS011;72290;48.808;9.222;2024-02-14T07:32:03;12.20;;;5.90;;
466;SDS011;72290;48.808;9.222;2024-02-14T07:34:29;15.17;;;6.47;;
466;SDS011;72290;48.808;9.222;2024-02-14T07:36:55;14.30;;;7.43;;
466;SDS011;72290;48.808;9.222;2024-02-14T07:39:21;23.23;;;9.20;;
466;SDS011;72290;48.808;9.222;2024-02-14T07:41:47;34.60;;;10.73;;
466;SDS011;72290;48.808;9.222;2024-02-14T07:44:14;15.13;;;7.47;;
466;SDS011;72290;48.808;9.222;2024-02-14T07:46:40;18.43;;;7.10;;
466;SDS011;72290;48.808;9.222;2024-02-14T07:49:06;14.33;;;6.50;;
466;SDS011;72290;48.808;9.222;2024-02-14T07:51:33;14.77;;;5.97;;
466;SDS011;72290;48.808;9.222;2024-02-14T07:54:02;11.57;;;5.87;;
466;SDS011;72290;48.808;9.222;2024-02-14T07:56:28;19.77;;;6.60;;
466;SDS011;72290;48.808;9.222;2024-02-14T07:58:54;11.93;;;5.70;;
466;SDS011;72290;48.808;9.222;2024-02-14T08:01:20;22.50;;;7.27;;
466;SDS011;72290;48.808;9.222;2024-02-14T08:03:46;12.23;;;7.00;;
466;SDS011;72290;48.808;9.222;2024-02-14T08:06:13;16.60;;;8.33;;
466;SDS011;72290;48.808;9.222;2024-02-14T08:08:39;17.33;;;7.60;;
466;SDS011;72290;48.808;9.222;2024-02-14T08:11:05;21.80;;;9.00;;
466;SDS011;72290;48.808;9.222;2024-02-14T08:13:31;19.90;;;8.30;;
466;SDS011;72290;48.808;9.222;2024-02-14T08:15:57;24.00;;;9.30;;
466;SDS011;72290;48.808;9.222;2024-02-14T08:18:24;26.33;;;7.60;;
466;SDS011;72290;48.808;9.222;2024-02-14T08:20:52;22.93;;;8.97;;
466;SDS011;72290;48.808;9.222;2024-02-14T08:23:18;20.00;;;9.00;;
466;SDS011;72290;48.808;9.222;2024-02-14T08:25:45;27.03;;;9.07;;
466;SDS011;72290;48.808;9.222;2024-02-14T08:28:11;22.17;;;9.13;;
466;SDS011;72290;48.808;9.222;2024-02-14T08:30:37;34.10;;;8.90;;
466;SDS011;72290;48.808;9.222;2024-02-14T08:33:03;24.40;;;9.00;;
466;SDS011;72290;48.808;9.222;2024-02-14T08:35:29;27.63;;;10.03;;
466;SDS011;72290;48.808;9.222;2024-02-14T08:37:55;18.53;;;8.67;;
466;SDS011;72290;48.808;9.222;2024-02-14T08:40:21;30.80;;;8.70;;
466;SDS011;72290;48.808;9.222;2024-02-14T08:42:47;20.57;;;8.57;;
466;SDS011;72290;48.808;9.222;2024-02-14T08:45:13;19.80;;;7.90;;
466;SDS011;72290;48.808;9.222;2024-02-14T08:47:39;23.37;;;8.20;;
466;SDS011;72290;48.808;9.222;2024-02-14T08:50:05;22.53;;;7.70;;
466;SDS011;72290;48.808;9.222;2024-02-14T08:52:31;19.43;;;7.80;;
466;SDS011;72290;48.808;9.222;2024-02-14T08:54:57;23.77;;;7.60;;
466;SDS011;72290;48.808;9.222;2024-02-14T08:57:23;26.50;;;9.30;;
466;SDS011;72290;48.808;9.222;2024-02-14T08:59:51;18.70;;;8.63;;
466;SDS011;72290;48.808;9.222;2024-02-14T09:02:17;30.60;;;8.50;;
466;SDS011;72290;48.808;9.222;2024-02-14T09:04:43;21.57;;;8.03;;
466;SDS011;72290;48.808;9.222;2024-02-14T09:07:09;20.10;;;8.40;;
466;SDS011;72290;48.808;9.222;2024-02-14T09:09:35;13.80;;;8.23;;
466;SDS011;72290;48.808;9.222;2024-02-14T09:12:03;21.30;;;7.20;;
466;SDS011;72290;48.808;9.222;2024-02-14T09:14:29;17.67;;;7.57;;
466;SDS011;72290;48.808;9.222;2024-02-14T09:16:55;13.90;;;6.50;;
466;SDS011;72290;48.808;9.222;2024-02-14T09:19:21;10.40;;;5.83;;
466;SDS011;72290;48.808;9.222;2024-02-14T09:21:47;29.53;;;6.47;;
466;SDS011;72290;48.808;9.222;2024-02-14T09:24:13;18.93;;;6.83;;
466;SDS011;72290;48.808;9.222;2024-02-14T09:26:39;16.30;;;6.03;;
466;SDS011;72290;48.808;9.222;2024-02-14T09:29:06;13.47;;;5.90;;
466;SDS011;72290;48.808;9.222;2024-02-14T09:31:32;20.77;;;6.83;;
466;SDS011;72290;48.808;9.222;2024-02-14T09:33:58;12.90;;;6.43;;
466;SDS011;72290;48.808;9.222;2024-02-14T09:36:24;21.60;;;6.43;;
466;SDS011;72290;48.808;9.222;2024-02-14T09:38:51;18.80;;;6.53;;
466;SDS011;72290;48.808;9.222;2024-02-14T09:41:23;17.73;;;6.73;;
466;SDS011;72290;48.808;9.222;2024-02-14T09:43:51;20.23;;;6.23;;
466;SDS011;72290;48.808;9.222;2024-02-14T09:46:17;13.40;;;6.13;;
466;SDS011;72290;48.808;9.222;2024-02-14T09:48:44;15.07;;;6.73;;
466;SDS011;72290;48.808;9.222;2024-02-14T09:51:11;24.33;;;7.40;;
466;SDS011;72290;48.808;9.222;2024-02-14T09:53:37;18.10;;;7.10;;
466;SDS011;72290;48.808;9.222;2024-02-14T09:56:04;24.40;;;8.47;;
466;SDS011;72290;48.808;9.222;2024-02-14T09:58:30;16.23;;;6.97;;
466;SDS011;72290;48.808;9.222;2024-02-14T10:01:00;18.97;;;6.57;;
466;SDS011;72290;48.808;9.222;2024-02-14T10:03:26;25.50;;;6.97;;
466;SDS011;72290;48.808;9.222;2024-02-14T10:05:52;20.67;;;6.47;;
466;SDS011;72290;48.808;9.222;2024-02-14T10:08:18;18.90;;;6.27;;
466;SDS011;72290;48.808;9.222;2024-02-14T10:10:45;19.93;;;6.03;;
466;SDS011;72290;48.808;9.222;2024-02-14T10:13:11;19.00;;;5.43;;
466;SDS011;72290;48.808;9.222;2024-02-14T10:15:37;14.10;;;5.40;;
466;SDS011;72290;48.808;9.222;2024-02-14T10:18:03;11.27;;;5.23;;
466;SDS011;72290;48.808;9.222;2024-02-14T10:20:29;12.67;;;4.40;;
466;SDS011;72290;48.808;9.222;2024-02-14T10:23:02;9.73;;;3.83;;
466;SDS011;72290;48.808;9.222;2024-02-14T10:25:28;4.63;;;3.23;;
466;SDS011;72290;48.808;9.222;2024-02-14T10:27:54;9.50;;;2.90;;
466;SDS011;72290;48.808;9.222;2024-02-14T10:30:20;7.63;;;2.60;;
466;SDS011;72290;48.808;9.222;2024-02-14T10:32:47;6.03;;;2.97;;
466;SDS011;72290;48.808;9.222;2024-02-14T10:35:14;3.53;;;2.10;;
466;SDS011;72290;48.808;9.222;2024-02-14T10:37:40;4.77;;;2.20;;
466;SDS011;72290;48.808;9.222;2024-02-14T10:40:07;3.67;;;2.10;;
466;SDS011;72290;48.808;9.222;2024-02-14T10:42:36;4.33;;;2.00;;
466;SDS011;72290;48.808;9.222;2024-02-14T10:45:03;6.27;;;1.90;;
466;SDS011;72290;48.808;9.222;2024-02-14T10:47:31;5.50;;;1.90;;
466;SDS011;72290;48.808;9.222;2024-02-14T10:52:25;2.20;;;1.50;;
466;SDS011;72290;48.808;9.222;2024-02-14T10:54:55;2.90;;;1.83;;
466;SDS011;72290;48.808;9.222;2024-02-14T10:57:22;2.47;;;1.50;;
466;SDS011;72290;48.808;9.222;2024-02-14T10:59:49;4.63;;;1.60;;
466;SDS011;72290;48.808;9.222;2024-02-14T11:02:15;3.00;;;2.00;;
466;SDS011;72290;48.808;9.222;2024-02-14T11:04:42;1.87;;;1.80;;
466;SDS011;72290;48.808;9.222;2024-02-14T11:07:09;5.37;;;1.90;;
466;SDS011;72290;48.808;9.222;2024-02-14T11:09:38;3.57;;;1.70;;
466;SDS011;72290;48.808;9.222;2024-02-14T11:12:08;5.03;;;1.83;;
466;SDS011;72290;48.808;9.222;2024-02-14T11:14:35;3.80;;;2.00;;
466;SDS011;72290;48.808;9.222;2024-02-14T11:17:04;1.90;;;1.63;;
466;SDS011;72290;48.808;9.222;2024-02-14T11:19:34;2.50;;;2.07;;
466;SDS011;72290;48.808;9.222;2024-02-14T11:22:17;2.93;;;1.80;;
466;SDS011;72290;48.808;9.222;2024-02-14T11:24:45;4.87;;;2.03;;
466;SDS011;72290;48.808;9.222;2024-02-14T11:27:11;4.10;;;2.13;;
466;SDS011;72290;48.808;9.222;2024-02-14T11:29:40;4.73;;;1.83;;
466;SDS011;72290;48.808;9.222;2024-02-14T11:32:06;3.83;;;1.70;;
466;SDS011;72290;48.808;9.222;2024-02-14T11:34:34;6.23;;;1.87;;
466;SDS011;72290;48.808;9.222;2024-02-14T11:37:00;3.60;;;1.40;;
466;SDS011;72290;48.808;9.222;2024-02-14T11:39:26;6.57;;;1.63;;
466;SDS011;72290;48.808;9.222;2024-02-14T11:41:52;7.23;;;1.37;;
466;SDS011;72290;48.808;9.222;2024-02-14T11:44:21;1.60;;;1.40;;
466;SDS011;72290;48.808;9.222;2024-02-14T11:46:47;6.03;;;1.30;;
466;SDS011;72290;48.808;9.222;2024-02-14T11:49:13;3.07;;;1.40;;
466;SDS011;72290;48.808;9.222;2024-02-14T11:51:39;1.63;;;1.37;;
466;SDS011;72290;48.808;9.222;2024-02-14T11:54:06;2.87;;;1.40;;
466;SDS011;72290;48.808;9.222;2024-02-14T11:56:32;2.43;;;1.40;;
466;SDS011;72290;48.808;9.222;2024-02-14T11:59:03;3.70;;;1.70;;
466;SDS011;72290;48.808;9.222;2024-02-14T12:01:37;3.47;;;1.50;;
466;SDS011;72290;48.808;9.222;2024-02-14T12:04:05;3.77;;;1.63;;
466;SDS011;72290;48.808;9.222;2024-02-14T12:06:36;2.90;;;1.40;;
466;SDS011;72290;48.808;9.222;2024-02-14T12:09:03;1.80;;;1.27;;
466;SDS011;72290;48.808;9.222;2024-02-14T12:11:37;2.30;;;1.40;;
466;SDS011;72290;48.808;9.222;2024-02-14T12:14:07;7.20;;;1.50;;
466;SDS011;72290;48.808;9.222;2024-02-14T12:16:34;1.20;;;1.20;;
466;SDS011;72290;48.808;9.222;2024-02-14T12:21:37;1.80;;;1.33;;
466;SDS011;72290;48.808;9.222;2024-02-14T12:24:06;3.70;;;1.60;;
466;SDS011;72290;48.808;9.222;2024-02-14T12:26:32;8.10;;;1.50;;
466;SDS011;72290;48.808;9.222;2024-02-14T12:29:01;2.23;;;1.50;;
466;SDS011;72290;48.808;9.222;2024-02-14T12:31:28;3.23;;;1.47;;
466;SDS011;72290;48.808;9.222;2024-02-14T12:33:56;2.70;;;1.43;;
466;SDS011;72290;48.808;9.222;2024-02-14T12:36:24;1.10;;;1.00;;
466;SDS011;72290;48.808;9.222;2024-02-14T12:38:50;2.70;;;1.10;;
466;SDS011;72290;48.808;9.222;2024-02-14T12:41:18;5.20;;;1.43;;
466;SDS011;72290;48.808;9.222;2024-02-14T12:43:44;2.50;;;1.13;;
466;SDS011;72290;48.808;9.222;2024-02-14T12:46:09;2.30;;;1.10;;
466;SDS011;72290;48.808;9.222;2024-02-14T12:48:35;1.13;;;1.03;;
466;SDS011;72290;48.808;9.222;2024-02-14T12:51:01;1.20;;;1.10;;
466;SDS011;72290;48.808;9.222;2024-02-14T12:53:27;4.83;;;0.90;;
466;SDS011;72290;48.808;9.222;2024-02-14T12:55:53;2.43;;;0.97;;
466;SDS011;72290;48.808;9.222;2024-02-14T12:58:19;1.73;;;1.20;;
466;SDS011;72290;48.808;9.222;2024-02-14T13:00:45;1.47;;;1.07;;
466;SDS011;72290;48.808;9.222;2024-02-14T13:03:12;1.00;;;0.90;;
466;SDS011;72290;48.808;9.222;2024-02-14T13:05:39;1.37;;;0.97;;
466;SDS011;72290;48.808;9.222;2024-02-14T13:08:05;1.73;;;1.17;;
466;SDS011;72290;48.808;9.222;2024-02-14T13:10:31;1.73;;;1.20;;
466;SDS011;72290;48.808;9.222;2024-02-14T13:12:57;1.13;;;1.00;;
466;SDS011;72290;48.808;9.222;2024-02-14T13:15:23;2.77;;;1.00;;
466;SDS011;72290;48.808;9.222;2024-02-14T13:17:50;1.30;;;1.03;;
466;SDS011;72290;48.808;9.222;2024-02-14T13:20:16;3.53;;;1.30;;
466;SDS011;72290;48.808;9.222;2024-02-14T13:22:42;1.67;;;1.27;;
466;SDS011;72290;48.808;9.222;2024-02-14T13:25:08;1.10;;;1.10;;
466;SDS011;72290;48.808;9.222;2024-02-14T13:27:34;1.57;;;1.10;;
466;SDS011;72290;48.808;9.222;2024-02-14T13:30:01;2.50;;;1.20;;
466;SDS011;72290;48.808;9.222;2024-02-14T13:32:27;1.27;;;1.10;;
466;SDS011;72290;48.808;9.222;2024-02-14T13:34:53;1.20;;;1.10;;
466;SDS011;72290;48.808;9.222;2024-02-14T13:37:19;2.63;;;1.47;;
466;SDS011;72290;48.808;9.222;2024-02-14T13:39:46;2.77;;;1.43;;
466;SDS011;72290;48.808;9.222;2024-02-14T13:42:12;2.73;;;1.10;;
466;SDS011;72290;48.808;9.222;2024-02-14T13:44:38;2.07;;;1.40;;
466;SDS011;72290;48.808;9.222;2024-02-14T13:47:04;4.70;;;1.80;;
466;SDS011;72290;48.808;9.222;2024-02-14T13:49:31;1.70;;;1.50;;
466;SDS011;72290;48.808;9.222;2024-02-14T13:51:57;1.60;;;1.20;;
466;SDS011;72290;48.808;9.222;2024-02-14T13:54:23;1.60;;;1.20;;
466;SDS011;72290;48.808;9.222;2024-02-14T13:56:49;3.40;;;1.10;;
466;SDS011;72290;48.808;9.222;2024-02-14T13:59:16;1.47;;;1.20;;
466;SDS011;72290;48.808;9.222;2024-02-14T14:01:43;3.40;;;1.50;;
466;SDS011;72290;48.808;9.222;2024-02-14T14:04:09;3.63;;;1.67;;
466;SDS011;72290;48.808;9.222;2024-02-14T14:06:35;0.80;;;0.80;;
466;SDS011;72290;48.808;9.222;2024-02-14T14:09:01;4.63;;;0.80;;
466;SDS011;72290;48.808;9.222;2024-02-14T14:11:32;2.00;;;1.27;;
466;SDS011;72290;48.808;9.222;2024-02-14T14:13:58;1.50;;;1.10;;
466;SDS011;72290;48.808;9.222;2024-02-14T14:16:27;1.23;;;1.23;;
466;SDS011;72290;48.808;9.222;2024-02-14T14:18:53;1.47;;;0.97;;
466;SDS011;72290;48.808;9.222;2024-02-14T14:21:18;0.90;;;0.90;;
466;SDS011;72290;48.808;9.222;2024-02-14T14:23:44;1.40;;;1.00;;
466;SDS011;72290;48.808;9.222;2024-02-14T14:26:12;1.37;;;0.97;;
466;SDS011;72290;48.808;9.222;2024-02-14T14:28:38;1.83;;;1.23;;
466;SDS011;72290;48.808;9.222;2024-02-14T14:31:04;0.70;;;0.70;;
466;SDS011;72290;48.808;9.222;2024-02-14T14:33:30;1.30;;;1.10;;
466;SDS011;72290;48.808;9.222;2024-02-14T14:35:56;0.80;;;0.67;;
466;SDS011;72290;48.808;9.222;2024-02-14T14:38:23;1.43;;;1.07;;
466;SDS011;72290;48.808;9.222;2024-02-14T14:40:49;2.53;;;0.80;;
466;SDS011;72290;48.808;9.222;2024-02-14T14:43:15;1.33;;;0.93;;
466;SDS011;72290;48.808;9.222;2024-02-14T14:45:44;2.03;;;1.20;;
466;SDS011;72290;48.808;9.222;2024-02-14T14:48:10;1.40;;;1.20;;
466;SDS011;72290;48.808;9.222;2024-02-14T14:50:36;1.40;;;1.17;;
466;SDS011;72290;48.808;9.222;2024-02-14T14:53:02;2.57;;;1.63;;
466;SDS011;72290;48.808;9.222;2024-02-14T14:55:40;0.90;;;0.90;;
466;SDS011;72290;48.808;9.222;2024-02-14T14:58:14;2.40;;;1.13;;
466;SDS011;72290;48.808;9.222;2024-02-14T15:00:41;5.20;;;1.30;;
466;SDS011;72290;48.808;9.222;2024-02-14T15:03:07;2.27;;;1.30;;
466;SDS011;72290;48.808;9.222;2024-02-14T15:05:33;2.50;;;1.20;;
466;SDS011;72290;48.808;9.222;2024-02-14T15:07:59;4.60;;;1.40;;
466;SDS011;72290;48.808;9.222;2024-02-14T15:10:25;4.00;;;1.10;;
466;SDS011;72290;48.808;9.222;2024-02-14T15:12:51;1.17;;;0.93;;
466;SDS011;72290;48.808;9.222;2024-02-14T15:15:17;1.07;;;1.03;;
466;SDS011;72290;48.808;9.222;2024-02-14T15:17:45;4.07;;;1.20;;
466;SDS011;72290;48.808;9.222;2024-02-14T15:20:11;1.33;;;1.30;;
466;SDS011;72290;48.808;9.222;2024-02-14T15:22:37;2.97;;;1.60;;
466;SDS011;72290;48.808;9.222;2024-02-14T15:25:03;3.30;;;1.40;;
466;SDS011;72290;48.808;9.222;2024-02-14T15:27:29;2.03;;;1.20;;
466;SDS011;72290;48.808;9.222;2024-02-14T15:29:57;4.30;;;1.63;;
466;SDS011;72290;48.808;9.222;2024-02-14T15:32:42;2.30;;;1.40;;
466;SDS011;72290;48.808;9.222;2024-02-14T15:35:26;2.33;;;1.80;;
466;SDS011;72290;48.808;9.222;2024-02-14T15:37:52;3.80;;;1.53;;
466;SDS011;72290;48.808;9.222;2024-02-14T15:40:18;3.17;;;1.50;;
466;SDS011;72290;48.808;9.222;2024-02-14T15:42:45;2.70;;;1.33;;
466;SDS011;72290;48.808;9.222;2024-02-14T15:45:12;2.27;;;1.30;;
466;SDS011;72290;48.808;9.222;2024-02-14T15:47:42;1.73;;;1.30;;
466;SDS011;72290;48.808;9.222;2024-02-14T15:50:08;2.73;;;1.57;;
466;SDS011;72290;48.808;9.222;2024-02-14T15:52:34;3.93;;;1.40;;
466;SDS011;72290;48.808;9.222;2024-02-14T15:55:00;3.50;;;1.60;;
466;SDS011;72290;48.808;9.222;2024-02-14T15:57:26;1.10;;;1.10;;
466;SDS011;72290;48.808;9.222;2024-02-14T15:59:52;1.57;;;1.40;;
466;SDS011;72290;48.808;9.222;2024-02-14T16:02:18;4.43;;;1.23;;
466;SDS011;72290;48.808;9.222;2024-02-14T16:04:44;2.83;;;1.43;;
466;SDS011;72290;48.808;9.222;2024-02-14T16:07:10;3.30;;;1.60;;
466;SDS011;72290;48.808;9.222;2024-02-14T16:09:36;1.97;;;1.27;;
466;SDS011;72290;48.808;9.222;2024-02-14T16:12:02;2.30;;;1.30;;
466;SDS011;72290;48.808;9.222;2024-02-14T16:14:28;1.17;;;1.07;;
466;SDS011;72290;48.808;9.222;2024-02-14T16:16:54;3.27;;;1.60;;
466;SDS011;72290;48.808;9.222;2024-02-14T16:19:20;2.20;;;1.40;;
466;SDS011;72290;48.808;9.222;2024-02-14T16:21:46;3.53;;;1.57;;
466;SDS011;72290;48.808;9.222;2024-02-14T16:24:12;2.77;;;1.73;;
466;SDS011;72290;48.808;9.222;2024-02-14T16:26:38;2.30;;;1.43;;
466;SDS011;72290;48.808;9.222;2024-02-14T16:29:04;2.47;;;1.40;;
466;SDS011;72290;48.808;9.222;2024-02-14T16:31:30;3.60;;;1.17;;
466;SDS011;72290;48.808;9.222;2024-02-14T16:33:56;1.63;;;1.20;;
466;SDS011;72290;48.808;9.222;2024-02-14T16:36:22;1.73;;;1.10;;
466;SDS011;72290;48.808;9.222;2024-02-14T16:38:47;7.87;;;1.20;;
466;SDS011;72290;48.808;9.222;2024-02-14T16:41:13;1.27;;;1.10;;
466;SDS011;72290;48.808;9.222;2024-02-14T16:43:41;1.40;;;1.10;;
466;SDS011;72290;48.808;9.222;2024-02-14T16:46:07;2.83;;;1.20;;
466;SDS011;72290;48.808;9.222;2024-02-14T16:48:33;1.80;;;1.43;;
466;SDS011;72290;48.808;9.222;2024-02-14T16:50:59;3.10;;;1.13;;
466;SDS011;72290;48.808;9.222;2024-02-14T16:53:25;1.20;;;1.10;;
466;SDS011;72290;48.808;9.222;2024-02-14T16:55:51;3.87;;;2.10;;
466;SDS011;72290;48.808;9.222;2024-02-14T16:58:17;5.33;;;2.33;;
466;SDS011;72290;48.808;9.222;2024-02-14T17:00:43;10.60;;;3.47;;
466;SDS011;72290;48.808;9.222;2024-02-14T17:03:09;3.50;;;2.40;;
466;SDS011;72290;48.808;9.222;2024-02-14T17:05:35;9.10;;;4.77;;
466;SDS011;72290;48.808;9.222;2024-02-14T17:08:01;7.43;;;4.40;;
466;SDS011;72290;48.808;9.222;2024-02-14T17:10:27;7.70;;;4.40;;
466;SDS011;72290;48.808;9.222;2024-02-14T17:12:53;7.20;;;4.37;;
466;SDS011;72290;48.808;9.222;2024-02-14T17:15:19;7.73;;;4.30;;
466;SDS011;72290;48.808;9.222;2024-02-14T17:17:45;9.03;;;5.00;;
466;SDS011;72290;48.808;9.222;2024-02-14T17:20:11;8.33;;;5.20;;
466;SDS011;72290;48.808;9.222;2024-02-14T17:22:37;11.33;;;5.10;;
466;SDS011;72290;48.808;9.222;2024-02-14T17:25:03;8.10;;;3.33;;
466;SDS011;72290;48.808;9.222;2024-02-14T17:27:30;6.50;;;3.00;;
466;SDS011;72290;48.808;9.222;2024-02-14T17:29:56;5.53;;;2.90;;
466;SDS011;72290;48.808;9.222;2024-02-14T17:32:22;3.30;;;2.27;;
466;SDS011;72290;48.808;9.222;2024-02-14T17:34:50;3.63;;;2.20;;
466;SDS011;72290;48.808;9.222;2024-02-14T17:37:16;4.13;;;3.20;;
466;SDS011;72290;48.808;9.222;2024-02-14T17:39:42;2.83;;;2.10;;
466;SDS011;72290;48.808;9.222;2024-02-14T17:42:08;9.27;;;2.33;;
466;SDS011;72290;48.808;9.222;2024-02-14T17:44:34;5.23;;;2.70;;
466;SDS011;72290;48.808;9.222;2024-02-14T17:47:00;6.40;;;3.43;;
466;SDS011;72290;48.808;9.222;2024-02-14T17:49:26;16.90;;;7.83;;
466;SDS011;72290;48.808;9.222;2024-02-14T17:51:52;15.93;;;7.83;;
466;SDS011;72290;48.808;9.222;2024-02-14T17:54:18;13.23;;;6.30;;
466;SDS011;72290;48.808;9.222;2024-02-14T17:56:44;10.90;;;6.23;;
466;SDS011;72290;48.808;9.222;2024-02-14T17:59:10;8.87;;;4.73;;
466;SDS011;72290;48.808;9.222;2024-02-14T18:01:37;7.53;;;3.83;;
466;SDS011;72290;48.808;9.222;2024-02-14T18:04:03;4.90;;;3.20;;
466;SDS011;72290;48.808;9.222;2024-02-14T18:06:30;11.47;;;4.37;;
466;SDS011;72290;48.808;9.222;2024-02-14T18:08:56;16.13;;;5.30;;
466;SDS011;72290;48.808;9.222;2024-02-14T18:11:25;11.63;;;4.63;;
466;SDS011;72290;48.808;9.222;2024-02-14T18:13:51;8.77;;;4.70;;
466;SDS011;72290;48.808;9.222;2024-02-14T18:16:18;9.73;;;4.20;;
466;SDS011;72290;48.808;9.222;2024-02-14T18:18:44;9.40;;;4.20;;
466;SDS011;72290;48.808;9.222;2024-02-14T18:21:11;13.07;;;5.43;;
466;SDS011;72290;48.808;9.222;2024-02-14T18:23:37;5.50;;;3.20;;
466;SDS011;72290;48.808;9.222;2024-02-14T18:26:03;7.57;;;3.53;;
466;SDS011;72290;48.808;9.222;2024-02-14T18:28:29;3.50;;;2.40;;
466;SDS011;72290;48.808;9.222;2024-02-14T18:30:56;2.97;;;2.47;;
466;SDS011;72290;48.808;9.222;2024-02-14T18:33:23;4.97;;;3.10;;
466;SDS011;72290;48.808;9.222;2024-02-14T18:35:50;3.13;;;2.33;;
466;SDS011;72290;48.808;9.222;2024-02-14T18:38:16;5.70;;;3.20;;
466;SDS011;72290;48.808;9.222;2024-02-14T18:40:45;8.37;;;4.50;;
466;SDS011;72290;48.808;9.222;2024-02-14T18:43:11;7.53;;;3.70;;
466;SDS011;72290;48.808;9.222;2024-02-14T18:45:37;6.90;;;3.47;;
466;SDS011;72290;48.808;9.222;2024-02-14T18:48:04;8.80;;;3.50;;
466;SDS011;72290;48.808;9.222;2024-02-14T18:50:30;8.20;;;3.50;;
466;SDS011;72290;48.808;9.222;2024-02-14T18:52:57;6.23;;;2.30;;
466;SDS011;72290;48.808;9.222;2024-02-14T18:55:23;5.97;;;2.90;;
466;SDS011;72290;48.808;9.222;2024-02-14T18:57:49;5.17;;;2.47;;
466;SDS011;72290;48.808;9.222;2024-02-14T19:00:15;6.27;;;3.43;;
466;SDS011;72290;48.808;9.222;2024-02-14T19:02:42;3.60;;;2.50;;
466;SDS011;72290;48.808;9.222;2024-02-14T19:05:08;8.20;;;3.07;;
466;SDS011;72290;48.808;9.222;2024-02-14T19:07:35;3.83;;;2.10;;
466;SDS011;72290;48.808;9.222;2024-02-14T19:10:01;2.77;;;2.03;;
466;SDS011;72290;48.808;9.222;2024-02-14T19:12:28;4.80;;;2.67;;
466;SDS011;72290;48.808;9.222;2024-02-14T19:14:57;8.00;;;3.63;;
466;SDS011;72290;48.808;9.222;2024-02-14T19:17:24;7.37;;;3.57;;
466;SDS011;72290;48.808;9.222;2024-02-14T19:19:50;8.23;;;3.90;;
466;SDS011;72290;48.808;9.222;2024-02-14T19:22:16;8.90;;;3.80;;
466;SDS011;72290;48.808;9.222;2024-02-14T19:24:42;4.60;;;3.37;;
466;SDS011;72290;48.808;9.222;2024-02-14T19:27:08;6.67;;;3.57;;
466;SDS011;72290;48.808;9.222;2024-02-14T19:29:34;10.47;;;5.00;;
466;SDS011;72290;48.808;9.222;2024-02-14T19:32:00;14.13;;;6.27;;
466;SDS011;72290;48.808;9.222;2024-02-14T19:34:25;13.63;;;5.80;;
466;SDS011;72290;48.808;9.222;2024-02-14T19:36:53;10.83;;;4.70;;
466;SDS011;72290;48.808;9.222;2024-02-14T19:39:19;9.43;;;5.17;;
466;SDS011;72290;48.808;9.222;2024-02-14T19:41:45;6.10;;;3.50;;
466;SDS011;72290;48.808;9.222;2024-02-14T19:44:11;6.13;;;3.40;;
466;SDS011;72290;48.808;9.222;2024-02-14T19:46:37;5.50;;;2.87;;
466;SDS011;72290;48.808;9.222;2024-02-14T19:49:04;5.27;;;2.63;;
466;SDS011;72290;48.808;9.222;2024-02-14T19:51:30;11.47;;;4.90;;
466;SDS011;72290;48.808;9.222;2024-02-14T19:53:56;12.47;;;5.70;;
466;SDS011;72290;48.808;9.222;2024-02-14T19:56:22;9.50;;;5.27;;
466;SDS011;72290;48.808;9.222;2024-02-14T19:58:48;9.60;;;4.40;;
466;SDS011;72290;48.808;9.222;2024-02-14T20:01:15;17.33;;;5.27;;
466;SDS011;72290;48.808;9.222;2024-02-14T20:03:43;10.73;;;5.53;;
466;SDS011;72290;48.808;9.222;2024-02-14T20:06:09;12.40;;;6.27;;
466;SDS011;72290;48.808;9.222;2024-02-14T20:08:35;15.67;;;6.60;;
466;SDS011;72290;48.808;9.222;2024-02-14T20:11:02;18.63;;;7.13;;
466;SDS011;72290;48.808;9.222;2024-02-14T20:13:30;14.33;;;6.10;;
466;SDS011;72290;48.808;9.222;2024-02-14T20:15:57;8.73;;;4.03;;
466;SDS011;72290;48.808;9.222;2024-02-14T20:18:25;9.10;;;3.73;;
466;SDS011;72290;48.808;9.222;2024-02-14T20:20:51;6.13;;;3.00;;
466;SDS011;72290;48.808;9.222;2024-02-14T20:23:17;4.57;;;2.80;;
466;SDS011;72290;48.808;9.222;2024-02-14T20:25:43;3.30;;;2.10;;
466;SDS011;72290;48.808;9.222;2024-02-14T20:28:10;5.00;;;2.93;;
466;SDS011;72290;48.808;9.222;2024-02-14T20:30:37;6.40;;;3.40;;
466;SDS011;72290;48.808;9.222;2024-02-14T20:33:03;5.50;;;3.20;;
466;SDS011;72290;48.808;9.222;2024-02-14T20:35:30;4.60;;;2.63;;
466;SDS011;72290;48.808;9.222;2024-02-14T20:37:59;3.83;;;2.50;;
466;SDS011;72290;48.808;9.222;2024-02-14T20:40:25;5.63;;;3.23;;
466;SDS011;72290;48.808;9.222;2024-02-14T20:42:51;8.50;;;4.10;;
466;SDS011;72290;48.808;9.222;2024-02-14T20:45:17;6.70;;;3.30;;
466;SDS011;72290;48.808;9.222;2024-02-14T20:47:44;9.03;;;4.87;;
466;SDS011;72290;48.808;9.222;2024-02-14T20:50:10;7.03;;;3.53;;
466;SDS011;72290;48.808;9.222;2024-02-14T20:52:38;7.23;;;3.30;;
466;SDS011;72290;48.808;9.222;2024-02-14T20:55:04;4.90;;;2.63;;
466;SDS011;72290;48.808;9.222;2024-02-14T20:57:30;4.93;;;2.40;;
466;SDS011;72290;48.808;9.222;2024-02-14T20:59:56;3.70;;;2.67;;
466;SDS011;72290;48.808;9.222;2024-02-14T21:02:22;3.07;;;2.87;;
466;SDS011;72290;48.808;9.222;2024-02-14T21:04:48;6.20;;;3.60;;
466;SDS011;72290;48.808;9.222;2024-02-14T21:07:14;4.30;;;2.50;;
466;SDS011;72290;48.808;9.222;2024-02-14T21:09:43;4.00;;;2.70;;
466;SDS011;72290;48.808;9.222;2024-02-14T21:12:10;4.13;;;2.60;;